YLT weather

Alert Airport
Alert, Nunavut, Canada

Public forecast

Using degrees Celsius for public forecast. Weather courtesy of forecast.io.

Current aviation weather report (METAR) for Alert Airport

Retrieved 2020/05/31 16:00 UTC (1 hour ago):

CYLT 311600Z 35006KT 15SM FEW100 FEW250 M02/M03 A2989 RMK AC1CI1 SLP125

Aviation forecast (TAF) for Alert Airport

Retrieved 2020/05/31 13:09 UTC (4 hours ago):

TAF TAF CYLT 311205Z 3113/0101 24008KT P6SM SCT040 TEMPO 3113/3115 BKN040 RMK NXT FCST BY 311800Z